This is the latest recevied weather packets stored in our database for station/object SQ9NFI-4. If no packets are shown the sender has not sent any weather packets the latest 10 day(s).
| Time | Temp. | Humidity | Pressure | Rain* | Wind** | Luminosity | Snow |
|---|---|---|---|---|---|---|---|
| 1777409715 | 0.56° C | 80% | 1024.4 hPa | 0 mm | - | 0 W/m² | - |
| 1777409415 | 1.11° C | 74% | 1024.4 hPa | 0 mm | - | 0 W/m² | - |
| 1777409115 | 1.11° C | 73% | 1024.4 hPa | 0 mm | - | 0 W/m² | - |
| 1777408815 | 1.67° C | 76% | 1024.4 hPa | 0 mm | - | 0 W/m² | - |
| 1777408515 | 1.67° C | 71% | 1024.4 hPa | 0 mm | - | 0 W/m² | - |
| 1777408215 | 1.67° C | 75% | 1024.4 hPa | 0 mm | - | 0 W/m² | - |
| 1777407915 | 1.67° C | 75% | 1024.4 hPa | 0 mm | - | 0 W/m² | - |
| 1777407615 | 2.22° C | 76% | 1024.4 hPa | 0 mm | - | 0 W/m² | - |
| 1777407315 | 2.22° C | 74% | 1024.4 hPa | 0 mm | - | 0 W/m² | - |
| 1777407015 | 2.78° C | 72% | 1024.4 hPa | 0 mm | - | 0 W/m² | - |
| 1777406715 | 3.33° C | 68% | 1024.4 hPa | 0 mm | - | 0 W/m² | - |
| 1777406415 | 3.33° C | 62% | 1024.4 hPa | 0 mm | - | 0 W/m² | - |
| 1777406115 | 3.33° C | 63% | 1024.4 hPa | 0 mm | - | 0 W/m² | - |
| 1777404915 | 5.56° C | 44% | 1024.4 hPa | 0 mm | - | 0 W/m² | - |
| 1777400415 | 7.78° C | 36% | 1023.4 hPa | 0 mm | - | 0 W/m² | - |
| 1777397715 | 10° C | 31% | 1023 hPa | 0 mm | - | 13 W/m² | - |
| 1777397415 | 10° C | 30% | 1023 hPa | 0 mm | - | 15 W/m² | - |
| 1777397115 | 10.56° C | 29% | 1022.7 hPa | 0 mm | - | 17 W/m² | - |
| 1777396815 | 10.56° C | 27% | 1022.7 hPa | 0 mm | - | 21 W/m² | - |
| 1777396515 | 11.11° C | 28% | 1022.7 hPa | 0 mm | - | 24 W/m² | - |
| 1777396215 | 11.11° C | 27% | 1022.7 hPa | 0 mm | - | 27 W/m² | - |
| 1777395915 | 11.11° C | 27% | 1022.7 hPa | 0 mm | - | 30 W/m² | - |
| 1777395615 | 11.67° C | 25% | 1022.7 hPa | 0 mm | - | 35 W/m² | - |
| 1777395315 | 11.67° C | 26% | 1022.7 hPa | 0 mm | - | 39 W/m² | - |
| 1777395015 | 12.22° C | 25% | 1022.7 hPa | 0 mm | - | 43 W/m² | - |
* Rain latest hour (hover to see other rain measurements)
** Current wind speed in m/s (hover to see current wind gust speed)